Terminal Aerodrome Forecast
Issued by NWS

Home | Current Version | Previous Version | Graphics & Text | Print | Product List | Glossary On
Versions: 1 2 3 4 5 6 7 8 9 10 11 12 13 14 15 16 17 18
000
FTUS43 KGRB 232001 AAA
TAFCWA
TAF AMD
KCWA 232001Z 2320/2418 36006KT P6SM SCT025 BKN080
     FM240000 05006KT P6SM SCT025 BKN050
     FM240500 05010KT 6SM -SN OVC020
     FM240800 04011G16KT 3SM -SN OVC012
     FM241100 03012G20KT 2SM -SN OVC008
     FM241400 02016G25KT 1SM -SN OVC010=

USA.gov is the U.S. government's official web portal to all federal, state and local government web resources and services.